Time;durP1;ratioP1;P1;durP2;ratioP2;P2;SDS_P1;SDS_P2;PMS_P1;PMS_P2;Temp;Humidity;BMP_temperature;BMP_pressure;BME280_temperature;BME280_humidity;BME280_pressure;Samples;Min_cycle;Max_cycle;Signal;HPM_P1;HPM_P2
2023/06/26 00:02:41;;;;;;;8.75;5.78;;;;;;;18.71;76.66;100516.75;5035330;28;20044;-81
2023/06/26 00:05:44;;;;;;;7.65;5.55;;;;;;;18.65;76.73;100504.88;5035256;28;20048;-81
2023/06/26 00:08:47;;;;;;;8.25;5.85;;;;;;;18.68;77.14;100509.91;5035458;28;20469;-81
2023/06/26 00:11:52;;;;;;;6.72;5.47;;;;;;;18.57;77.14;100500.25;5035143;28;20035;-81
2023/06/26 00:14:55;;;;;;;6.43;5.80;;;;;;;18.65;77.16;100510.16;5011919;28;20056;-81
2023/06/26 00:17:59;;;;;;;5.97;5.35;;;;;;;18.74;77.32;100505.94;5035255;28;20048;-82
2023/06/26 00:21:02;;;;;;;8.18;5.63;;;;;;;18.66;76.95;100501.25;5035368;28;20115;-82
2023/06/26 00:24:08;;;;;;;8.77;6.03;;;;;;;18.61;76.79;100511.41;5035014;28;20060;-82
2023/06/26 00:27:11;;;;;;;6.25;5.47;;;;;;;18.60;76.98;100501.78;5034879;28;20095;-82
2023/06/26 00:30:14;;;;;;;6.20;5.57;;;;;;;18.43;77.79;100499.75;5034695;28;20064;-82
2023/06/26 00:33:18;;;;;;;7.32;5.68;;;;;;;18.39;78.04;100488.59;5034927;28;20044;-82
2023/06/26 00:36:23;;;;;;;11.82;6.07;;;;;;;18.32;78.28;100487.44;5022870;28;20064;-82
2023/06/26 00:39:27;;;;;;;7.35;6.10;;;;;;;18.27;78.07;100497.56;5022407;28;20410;-82
2023/06/26 00:42:32;;;;;;;6.82;6.05;;;;;;;18.24;78.29;100497.84;5022240;28;20053;-82
2023/06/26 00:45:35;;;;;;;7.25;5.75;;;;;;;18.15;78.15;100494.16;5034725;28;20048;-81
2023/06/26 00:48:42;;;;;;;10.30;5.90;;;;;;;18.13;78.14;100498.75;5034517;28;20157;-82
2023/06/26 00:51:45;;;;;;;6.85;5.60;;;;;;;18.04;78.54;100500.34;5034511;28;20041;-81
2023/06/26 00:54:48;;;;;;;14.18;6.05;;;;;;;18.13;79.05;100496.09;5022184;28;20080;-81
2023/06/26 00:57:55;;;;;;;7.78;5.88;;;;;;;18.03;78.82;100493.41;5030344;28;20060;-81
2023/06/26 01:01:00;;;;;;;6.30;5.45;;;;;;;18.07;78.96;100486.88;5034455;28;20102;-81
2023/06/26 01:04:05;;;;;;;6.97;5.95;;;;;;;18.15;78.24;100486.22;5034319;28;20111;-81
2023/06/26 01:07:09;;;;;;;7.13;6.40;;;;;;;18.14;78.48;100484.53;5034390;28;20052;-81
2023/06/26 01:10:12;;;;;;;6.72;5.90;;;;;;;18.05;78.43;100490.59;5034055;28;20080;-81
2023/06/26 01:13:17;;;;;;;7.82;5.70;;;;;;;17.93;79.10;100486.34;5021669;28;20109;-81
2023/06/26 01:16:21;;;;;;;8.88;6.30;;;;;;;17.79;79.44;100485.69;5021768;28;20148;-82
2023/06/26 01:19:28;;;;;;;6.07;5.47;;;;;;;17.70;79.68;100489.06;5021979;28;20056;-82
2023/06/26 01:22:44;;;;;;;6.10;5.47;;;;;;;17.59;80.31;100491.75;5033629;28;20084;-81
2023/06/26 01:26:22;;;;;;;8.18;6.22;;;;;;;17.65;79.72;100481.53;5021572;28;20087;-81
2023/06/26 01:29:26;;;;;;;7.18;6.10;;;;;;;17.60;80.11;100490.78;5024347;28;20048;-81
2023/06/26 01:32:31;;;;;;;6.72;5.90;;;;;;;17.57;79.66;100472.53;5033809;28;20162;-81
2023/06/26 01:35:35;;;;;;;8.13;6.43;;;;;;;17.48;79.71;100475.94;5033771;28;20421;-81
2023/06/26 01:38:41;;;;;;;6.55;5.63;;;;;;;17.53;79.82;100477.25;5033683;28;20047;-82
2023/06/26 01:41:45;;;;;;;6.80;6.10;;;;;;;17.52;79.92;100477.38;5009893;28;20387;-83
2023/06/26 01:44:52;;;;;;;6.55;5.85;;;;;;;17.56;80.10;100473.50;5016978;28;20048;-82
2023/06/26 01:47:59;;;;;;;6.90;5.50;;;;;;;17.54;79.67;100470.97;5033560;28;20048;-83
2023/06/26 01:51:05;;;;;;;10.93;5.95;;;;;;;17.63;79.14;100469.38;5021183;28;20092;-83
2023/06/26 01:54:16;;;;;;;7.30;5.68;;;;;;;17.50;79.54;100474.00;5021210;28;20133;-82
2023/06/26 01:57:22;;;;;;;7.35;5.88;;;;;;;17.47;79.79;100475.09;5033201;28;20047;-81
2023/06/26 02:00:26;;;;;;;6.47;5.57;;;;;;;17.51;79.61;100475.69;5032459;28;20052;-81
2023/06/26 02:03:30;;;;;;;6.45;5.85;;;;;;;17.40;79.86;100469.47;5032965;28;20193;-81
2023/06/26 02:06:33;;;;;;;6.47;5.80;;;;;;;17.31;80.02;100464.94;5033106;28;20114;-81
2023/06/26 02:09:36;;;;;;;8.82;5.78;;;;;;;17.22;80.30;100467.50;5020912;28;20056;-81
2023/06/26 02:12:41;;;;;;;6.25;5.63;;;;;;;17.29;80.22;100461.56;5032903;28;20044;-81
2023/06/26 02:15:44;;;;;;;7.30;6.05;;;;;;;17.19;80.37;100466.75;5020575;28;20047;-82
2023/06/26 02:18:47;;;;;;;7.63;6.05;;;;;;;17.13;80.88;100472.56;5032044;28;20048;-81
2023/06/26 02:21:51;;;;;;;10.60;6.07;;;;;;;17.30;79.88;100476.47;5032776;28;20041;-81
2023/06/26 02:24:54;;;;;;;7.22;6.50;;;;;;;17.33;78.82;100478.03;5032778;28;20048;-81
2023/06/26 02:27:57;;;;;;;6.68;5.68;;;;;;;17.25;79.13;100476.00;5020531;28;20060;-81
2023/06/26 02:31:00;;;;;;;9.07;6.45;;;;;;;17.14;79.98;100473.41;5005158;28;20459;-81
2023/06/26 02:34:04;;;;;;;7.13;6.20;;;;;;;17.07;80.47;100477.47;5000985;28;20125;-81
2023/06/26 02:37:10;;;;;;;15.10;6.72;;;;;;;17.02;80.54;100474.38;5013100;28;20089;-81
2023/06/26 02:40:13;;;;;;;7.35;5.80;;;;;;;16.99;80.97;100472.00;5000499;28;20092;-81
2023/06/26 02:43:17;;;;;;;7.38;6.30;;;;;;;16.96;80.81;100471.25;5000313;28;20053;-81
2023/06/26 02:46:21;;;;;;;7.53;6.55;;;;;;;16.95;80.85;100474.03;5011833;28;20041;-81
2023/06/26 02:49:26;;;;;;;8.50;6.32;;;;;;;16.90;80.98;100471.75;5000457;28;20056;-82
2023/06/26 02:52:29;;;;;;;7.88;6.57;;;;;;;16.95;81.21;100474.88;5000527;28;20404;-82
2023/06/26 02:55:34;;;;;;;6.90;6.28;;;;;;;16.96;80.64;100473.91;4989092;28;20076;-81
2023/06/26 02:58:38;;;;;;;7.63;5.93;;;;;;;16.92;80.77;100476.91;5000341;28;20048;-82
2023/06/26 03:01:41;;;;;;;6.78;6.13;;;;;;;16.79;80.88;100474.41;5000169;28;20108;-82
2023/06/26 03:04:45;;;;;;;6.18;5.57;;;;;;;16.73;81.00;100472.22;5012405;28;20041;-82
2023/06/26 03:07:51;;;;;;;11.77;5.75;;;;;;;16.60;81.70;100468.88;4989361;28;20038;-83
2023/06/26 03:10:54;;;;;;;6.50;5.60;;;;;;;16.64;81.65;100480.88;5012370;28;20127;-82
2023/06/26 03:13:57;;;;;;;7.00;6.20;;;;;;;16.63;81.68;100469.47;4999868;28;20045;-82
2023/06/26 03:17:03;;;;;;;9.75;5.93;;;;;;;16.48;82.31;100471.50;5000192;28;20515;-82
2023/06/26 03:20:10;;;;;;;8.30;5.85;;;;;;;16.48;82.42;100475.94;5000048;28;20128;-83
2023/06/26 03:23:25;;;;;;;8.25;6.10;;;;;;;16.49;82.23;100462.59;5002385;28;20092;-82
2023/06/26 03:26:28;;;;;;;10.38;6.05;;;;;;;16.40;82.31;100463.34;5004397;28;20061;-81
2023/06/26 03:29:33;;;;;;;9.75;6.28;;;;;;;16.31;82.46;100466.69;5006830;28;20109;-82
2023/06/26 03:32:37;;;;;;;8.95;6.55;;;;;;;16.36;82.21;100464.53;5036290;28;20043;-82
2023/06/26 03:35:40;;;;;;;9.63;6.22;;;;;;;16.32;82.37;100470.19;5023558;28;20040;-81
2023/06/26 03:38:47;;;;;;;7.15;6.35;;;;;;;16.29;82.43;100460.69;5023534;28;20047;-82
2023/06/26 03:41:53;;;;;;;7.20;5.93;;;;;;;16.16;83.40;100465.22;5023630;28;20456;-70
2023/06/26 03:44:56;;;;;;;8.50;5.95;;;;;;;16.11;83.88;100467.38;5035978;28;20049;-70
2023/06/26 03:47:59;;;;;;;7.40;6.25;;;;;;;16.07;84.62;100460.66;5023485;28;20044;-70
2023/06/26 03:51:03;;;;;;;8.07;6.35;;;;;;;16.10;84.63;100468.34;5023255;28;20041;-71
2023/06/26 03:54:06;;;;;;;8.27;6.00;;;;;;;16.00;84.95;100470.84;5023470;28;20076;-70
2023/06/26 03:57:10;;;;;;;7.20;5.85;;;;;;;16.09;84.62;100464.03;5023335;28;20128;-69
2023/06/26 04:00:14;;;;;;;9.25;6.63;;;;;;;16.23;84.30;100462.00;5023195;28;20442;-70
2023/06/26 04:03:20;;;;;;;7.95;6.38;;;;;;;16.34;83.27;100471.75;5035421;28;20048;-70
2023/06/26 04:06:24;;;;;;;7.95;5.30;;;;;;;16.32;83.54;100464.91;5023185;28;20426;-71
2023/06/26 04:09:31;;;;;;;8.98;6.43;;;;;;;16.24;83.66;100468.09;5023340;28;20521;-85
2023/06/26 04:12:45;;;;;;;7.47;6.13;;;;;;;16.29;83.67;100471.25;5023015;28;20048;-83
2023/06/26 04:15:48;;;;;;;6.97;6.10;;;;;;;16.21;84.02;100474.47;5035564;28;20052;-82
2023/06/26 04:19:11;;;;;;;7.93;6.43;;;;;;;16.20;84.05;100477.22;5035448;28;20052;-83
2023/06/26 04:22:14;;;;;;;6.67;6.00;;;;;;;16.21;83.99;100471.00;5034320;28;20103;-80
2023/06/26 04:25:29;;;;;;;8.55;6.22;;;;;;;16.33;83.82;100470.03;5034990;28;20411;-81
2023/06/26 04:29:00;;;;;;;7.35;5.82;;;;;;;16.32;83.83;100465.72;5022949;28;20156;-88
2023/06/26 04:32:07;;;;;;;7.85;6.05;;;;;;;16.28;84.35;100466.94;5035047;28;20088;-73
2023/06/26 04:35:10;;;;;;;8.73;7.53;;;;;;;16.23;84.45;100469.06;5034524;28;20048;-73
2023/06/26 04:38:13;;;;;;;7.95;6.43;;;;;;;16.19;84.67;100465.00;5034604;28;20389;-73
2023/06/26 04:41:16;;;;;;;8.23;6.55;;;;;;;16.08;85.04;100468.47;5034528;28;20056;-74
2023/06/26 04:44:20;;;;;;;10.02;6.13;;;;;;;16.21;85.02;100471.84;5033578;28;20478;-73
2023/06/26 04:47:23;;;;;;;9.93;6.40;;;;;;;16.44;83.77;100479.78;5031198;28;20059;-75
2023/06/26 04:50:28;;;;;;;8.20;7.05;;;;;;;16.65;82.38;100456.13;5032722;28;20153;-72
2023/06/26 04:53:32;;;;;;;12.52;6.90;;;;;;;16.84;81.72;100471.41;5032341;28;20076;-71
2023/06/26 04:56:35;;;;;;;8.77;6.07;;;;;;;16.93;81.15;100463.59;5032790;28;20052;-71
2023/06/26 04:59:38;;;;;;;8.20;6.18;;;;;;;16.82;81.95;100463.63;5033730;28;20080;-72
2023/06/26 05:02:42;;;;;;;7.10;6.40;;;;;;;16.62;83.17;100466.94;5034253;28;20071;-71
2023/06/26 05:05:45;;;;;;;7.43;5.57;;;;;;;16.74;83.25;100461.53;5034133;28;20091;-71
2023/06/26 05:08:48;;;;;;;7.32;6.22;;;;;;;16.86;82.81;100462.41;5034411;28;20172;-71
2023/06/26 05:11:52;;;;;;;7.28;5.85;;;;;;;16.93;82.33;100471.50;5033980;28;20127;-71
2023/06/26 05:14:55;;;;;;;7.63;5.95;;;;;;;16.99;82.26;100458.78;5033990;28;20407;-71
2023/06/26 05:17:58;;;;;;;8.02;6.03;;;;;;;17.17;81.70;100462.59;5034096;28;20494;-71
2023/06/26 05:21:02;;;;;;;8.05;6.18;;;;;;;17.36;80.68;100462.78;5033966;28;20061;-71
2023/06/26 05:24:06;;;;;;;10.85;6.07;;;;;;;17.43;80.05;100468.41;5033864;28;20044;-70
2023/06/26 05:27:10;;;;;;;7.25;5.50;;;;;;;17.40;80.92;100477.41;5033791;28;20179;-71
2023/06/26 05:30:14;;;;;;;8.07;6.50;;;;;;;17.62;80.04;100465.91;5033583;28;20465;-71
2023/06/26 05:33:19;;;;;;;6.22;5.63;;;;;;;17.80;78.51;100476.78;5033782;28;20141;-71
2023/06/26 05:36:24;;;;;;;9.02;6.53;;;;;;;17.82;79.32;100479.31;5033295;28;20124;-71
2023/06/26 05:39:27;;;;;;;7.95;5.78;;;;;;;17.89;79.41;100478.66;5033878;28;20107;-71
2023/06/26 05:42:31;;;;;;;8.48;6.55;;;;;;;17.93;79.36;100475.75;5033538;28;20462;-72
2023/06/26 05:45:33;;;;;;;7.53;6.82;;;;;;;17.99;79.85;100464.66;5031798;28;20137;-72
2023/06/26 05:48:37;;;;;;;6.50;5.90;;;;;;;18.15;79.00;100472.97;5033458;28;20095;-73
2023/06/26 05:51:40;;;;;;;9.68;6.55;;;;;;;18.26;77.95;100464.97;5033422;28;20080;-71
2023/06/26 05:54:44;;;;;;;11.05;6.40;;;;;;;18.23;78.10;100453.81;5033478;28;20450;-71
2023/06/26 05:57:48;;;;;;;6.97;5.70;;;;;;;18.32;77.60;100459.16;5021020;28;20110;-71
2023/06/26 06:00:51;;;;;;;8.80;6.07;;;;;;;18.45;77.22;100456.28;5033382;28;20162;-71
2023/06/26 06:03:54;;;;;;;6.95;6.18;;;;;;;18.55;77.95;100457.16;5032726;28;20632;-72
2023/06/26 06:06:58;;;;;;;7.85;6.60;;;;;;;18.55;78.11;100454.53;5032133;28;20125;-72
2023/06/26 06:10:03;;;;;;;8.77;6.38;;;;;;;18.59;78.94;100455.91;5031982;28;20060;-72
2023/06/26 06:13:06;;;;;;;6.45;5.10;;;;;;;18.74;78.35;100455.59;5031616;28;20188;-71
2023/06/26 06:16:10;;;;;;;10.02;5.90;;;;;;;18.92;78.49;100464.59;5031666;28;20052;-71
2023/06/26 06:19:13;;;;;;;8.32;6.35;;;;;;;18.98;77.50;100452.59;5032500;28;20200;-69
2023/06/26 06:22:17;;;;;;;10.88;5.55;;;;;;;19.07;76.50;100461.53;5032806;28;20041;-70
2023/06/26 06:25:20;;;;;;;6.43;5.63;;;;;;;19.16;75.99;100461.56;5033014;28;20095;-69
2023/06/26 06:28:24;;;;;;;6.15;5.10;;;;;;;19.29;76.09;100467.44;5032619;28;20060;-66
2023/06/26 06:31:30;;;;;;;6.72;6.05;;;;;;;19.46;75.57;100465.06;5032330;28;20523;-71
2023/06/26 06:34:33;;;;;;;7.68;5.85;;;;;;;19.52;74.66;100475.94;5032721;28;20092;-75
2023/06/26 06:37:37;;;;;;;9.15;5.95;;;;;;;19.62;74.76;100473.34;5032625;28;20043;-77
2023/06/26 06:40:40;;;;;;;7.97;5.95;;;;;;;19.78;73.16;100477.25;5020200;28;20517;-75
2023/06/26 06:43:45;;;;;;;7.60;6.15;;;;;;;19.97;73.27;100483.38;5032454;28;20095;-75
2023/06/26 06:46:48;;;;;;;6.95;6.22;;;;;;;20.16;72.96;100481.66;5032582;28;20052;-76
2023/06/26 06:49:51;;;;;;;8.13;5.85;;;;;;;20.33;72.72;100472.13;5032853;28;20418;-75
2023/06/26 06:52:55;;;;;;;8.05;5.95;;;;;;;20.47;72.37;100479.63;5028668;28;20044;-82
2023/06/26 06:55:58;;;;;;;8.43;5.90;;;;;;;20.62;71.32;100483.50;5032168;28;20099;-83
2023/06/26 06:59:01;;;;;;;6.20;5.60;;;;;;;20.74;71.44;100476.19;5032418;28;20060;-83
2023/06/26 07:02:05;;;;;;;6.35;5.45;;;;;;;20.89;71.48;100463.22;5032555;28;20060;-83
2023/06/26 07:05:09;;;;;;;5.60;5.10;;;;;;;20.98;70.32;100465.00;5020211;28;20049;-83
2023/06/26 07:08:13;;;;;;;7.53;5.57;;;;;;;21.03;69.45;100469.91;5032319;28;20095;-83
2023/06/26 07:11:17;;;;;;;6.40;5.55;;;;;;;21.10;70.14;100470.97;5032152;28;20048;-87
2023/06/26 07:14:20;;;;;;;7.45;5.80;;;;;;;21.23;69.91;100470.59;5020231;28;20184;-81
2023/06/26 07:17:24;;;;;;;5.97;5.20;;;;;;;21.27;69.09;100470.13;5032204;28;20521;-82
2023/06/26 07:20:27;;;;;;;7.88;5.57;;;;;;;21.30;69.31;100476.97;5032068;28;20472;-82
2023/06/26 07:23:31;;;;;;;6.65;5.32;;;;;;;21.29;69.12;100480.63;5032072;28;20117;-82
2023/06/26 07:26:35;;;;;;;5.88;5.15;;;;;;;21.37;69.16;100483.41;5019981;28;20064;-82
2023/06/26 07:29:38;;;;;;;8.55;5.78;;;;;;;21.45;69.47;100480.81;5031867;28;20061;-82
2023/06/26 07:32:45;;;;;;;8.15;5.53;;;;;;;21.61;68.49;100479.31;5031840;28;20129;-82
2023/06/26 07:35:48;;;;;;;8.95;4.63;;;;;;;21.76;65.27;100477.75;5032073;28;20048;-84
2023/06/26 07:38:51;;;;;;;5.88;5.18;;;;;;;21.96;67.60;100495.25;5031836;28;20099;-81
2023/06/26 07:41:59;;;;;;;8.68;5.20;;;;;;;22.24;62.72;100493.31;5031800;28;20044;-83
2023/06/26 07:45:28;;;;;;;6.85;4.75;;;;;;;22.70;56.20;100487.72;5031803;28;20045;-85
2023/06/26 07:48:32;;;;;;;6.75;4.93;;;;;;;22.86;57.51;100494.97;5019667;28;20517;-85
2023/06/26 07:51:36;;;;;;;7.47;5.63;;;;;;;23.10;55.78;100499.56;5019655;28;20043;-85
2023/06/26 07:54:39;;;;;;;6.53;4.85;;;;;;;23.12;55.51;100503.75;5019761;28;20049;-83
2023/06/26 07:57:42;;;;;;;9.88;4.38;;;;;;;22.98;55.07;100499.88;5032044;28;20052;-85
2023/06/26 08:00:50;;;;;;;9.55;4.85;;;;;;;22.94;55.54;100497.66;5031839;28;20040;-86
2023/06/26 08:03:55;;;;;;;6.22;5.10;;;;;;;22.88;54.80;100508.97;5031812;28;20064;-85
2023/06/26 08:06:59;;;;;;;7.20;5.28;;;;;;;22.79;54.32;100501.94;5031003;28;20048;-84
2023/06/26 08:10:04;;;;;;;6.45;4.88;;;;;;;22.81;54.12;100510.59;5033686;28;20111;-84
2023/06/26 08:13:08;;;;;;;7.43;5.32;;;;;;;22.96;53.92;100504.53;5035053;28;20056;-84
2023/06/26 08:16:13;;;;;;;5.65;4.60;;;;;;;23.08;51.08;100509.56;5022817;28;20048;-84
2023/06/26 08:19:17;;;;;;;10.00;4.72;;;;;;;23.17;52.64;100500.59;5011771;28;20096;-85
2023/06/26 08:22:22;;;;;;;8.05;3.97;;;;;;;23.23;52.46;100499.97;5011724;28;20514;-86
2023/06/26 08:25:28;;;;;;;6.22;4.43;;;;;;;23.20;52.39;100503.78;5035472;28;20118;-87
2023/06/26 08:28:38;;;;;;;5.75;4.43;;;;;;;23.09;53.00;100498.72;5035258;28;20060;-85
2023/06/26 08:31:42;;;;;;;6.13;4.80;;;;;;;23.08;52.38;100498.91;5034888;28;20079;-82
2023/06/26 08:34:45;;;;;;;9.93;4.25;;;;;;;23.15;52.79;100508.75;5035094;28;20048;-84
2023/06/26 08:37:49;;;;;;;7.22;4.55;;;;;;;23.12;53.74;100522.41;5034613;28;20052;-85
2023/06/26 08:40:52;;;;;;;6.13;4.72;;;;;;;23.15;53.46;100519.41;5022132;28;20099;-85
2023/06/26 08:43:55;;;;;;;5.65;4.88;;;;;;;23.05;53.59;100507.22;5033261;28;20526;-85
2023/06/26 08:47:03;;;;;;;6.55;4.43;;;;;;;22.96;54.50;100499.19;5033633;28;20096;-84
2023/06/26 08:50:17;;;;;;;5.03;4.43;;;;;;;23.04;54.54;100510.88;5034035;28;20124;-84
2023/06/26 08:53:23;;;;;;;7.13;4.20;;;;;;;23.21;54.39;100524.13;5034108;28;20511;-84
2023/06/26 08:56:37;;;;;;;6.97;4.72;;;;;;;23.25;54.69;100510.44;5034441;28;20104;-84
2023/06/26 08:59:40;;;;;;;7.93;4.78;;;;;;;23.37;54.50;100515.31;5034537;28;20100;-85
2023/06/26 09:02:44;;;;;;;6.35;4.22;;;;;;;23.42;54.05;100510.34;5022555;28;20198;-85
2023/06/26 09:05:48;;;;;;;9.98;4.78;;;;;;;23.54;53.71;100508.16;5034538;28;20080;-84
2023/06/26 09:08:51;;;;;;;6.13;4.60;;;;;;;23.57;53.58;100507.00;5034365;28;20044;-84
2023/06/26 09:11:55;;;;;;;8.68;5.07;;;;;;;23.56;53.48;100526.69;5034159;28;20040;-84
2023/06/26 09:14:58;;;;;;;6.28;4.20;;;;;;;23.57;52.47;100525.69;5034515;28;20576;-85
2023/06/26 09:18:25;;;;;;;;;;;;;;;;;;;;;
2023/06/26 09:21:32;;;;;;;6.70;4.78;;;;;;;23.66;51.85;100522.03;5033061;28;20049;-85
2023/06/26 09:24:36;;;;;;;5.82;3.80;;;;;;;23.76;51.39;100530.75;5034089;28;20049;-84
2023/06/26 09:27:43;;;;;;;9.05;4.30;;;;;;;23.78;51.69;100526.09;5034363;28;20045;-84
2023/06/26 09:30:47;;;;;;;10.13;3.95;;;;;;;23.84;50.86;100520.09;5033960;28;20415;-84
2023/06/26 09:34:01;;;;;;;7.60;3.70;;;;;;;23.94;51.90;100527.94;5020499;28;20097;-84
2023/06/26 09:37:05;;;;;;;8.00;3.97;;;;;;;24.03;51.08;100534.13;5034108;28;20545;-84
2023/06/26 09:40:09;;;;;;;4.55;2.78;;;;;;;24.07;46.71;100541.59;5033835;28;20045;-84
2023/06/26 09:43:13;;;;;;;8.55;2.53;;;;;;;24.08;45.66;100537.09;5033766;28;20040;-84
2023/06/26 09:46:24;;;;;;;4.53;2.70;;;;;;;24.07;44.92;100538.09;5032997;28;20407;-84
2023/06/26 09:49:28;;;;;;;5.10;3.50;;;;;;;24.07;46.77;100535.44;5033690;28;20509;-84
2023/06/26 09:52:31;;;;;;;4.38;2.80;;;;;;;24.24;48.55;100552.28;5033560;28;20068;-84
2023/06/26 09:55:39;;;;;;;8.95;3.80;;;;;;;24.24;49.29;100554.94;5021337;28;20052;-84
2023/06/26 09:58:45;;;;;;;7.68;3.53;;;;;;;24.14;49.70;100537.25;5021236;28;20534;-84
2023/06/26 10:01:59;;;;;;;7.20;3.20;;;;;;;24.30;49.68;100524.88;5033370;28;20057;-84
2023/06/26 10:05:03;;;;;;;5.65;3.13;;;;;;;24.43;48.98;100530.56;5033538;28;20076;-84
2023/06/26 10:08:07;;;;;;;4.72;3.13;;;;;;;24.47;50.91;100531.88;5020944;28;20095;-84
2023/06/26 10:11:16;;;;;;;7.78;3.58;;;;;;;24.64;51.86;100524.69;5033471;28;20056;-85
2023/06/26 10:14:22;;;;;;;9.02;3.90;;;;;;;24.68;51.53;100525.16;5033350;28;20045;-85
2023/06/26 10:17:30;;;;;;;7.38;3.17;;;;;;;24.82;47.86;100530.66;5033142;28;20114;-84
2023/06/26 10:20:35;;;;;;;10.27;3.38;;;;;;;24.73;46.27;100525.47;5033041;28;20056;-84
2023/06/26 10:23:40;;;;;;;4.93;3.28;;;;;;;24.76;46.56;100522.47;5033389;28;20091;-85
2023/06/26 10:26:49;;;;;;;6.72;3.38;;;;;;;24.68;48.22;100522.50;5033134;28;20072;-85
2023/06/26 10:30:02;;;;;;;4.10;3.17;;;;;;;24.94;48.98;100538.28;5020481;28;20068;-85
2023/06/26 10:33:10;;;;;;;7.05;3.60;;;;;;;24.71;48.16;100532.84;5032184;28;20064;-85
2023/06/26 10:36:18;;;;;;;9.77;3.83;;;;;;;24.79;47.73;100536.34;5032886;28;20107;-85
2023/06/26 10:39:22;;;;;;;6.85;3.88;;;;;;;24.87;48.41;100527.44;5032767;28;20049;-85
2023/06/26 10:42:38;;;;;;;5.97;3.88;;;;;;;24.79;48.40;100541.69;5032940;28;20060;-85
2023/06/26 10:45:57;;;;;;;6.50;4.00;;;;;;;24.95;49.08;100555.97;5032676;28;20081;-85
2023/06/26 10:49:02;;;;;;;5.07;3.55;;;;;;;24.78;49.04;100553.38;5032566;28;20045;-86
2023/06/26 10:52:12;;;;;;;6.82;3.97;;;;;;;24.96;49.03;100553.16;5021047;28;20124;-86
2023/06/26 10:55:28;;;;;;;7.07;4.43;;;;;;;25.03;48.23;100553.28;5032420;28;20048;-85
2023/06/26 10:58:43;;;;;;;7.15;3.97;;;;;;;25.11;48.80;100550.59;5032442;28;20052;-83
2023/06/26 11:02:19;;;;;;;5.53;4.20;;;;;;;25.05;48.98;100556.63;5026693;28;20104;-85
2023/06/26 11:05:37;;;;;;;8.60;3.97;;;;;;;24.79;50.06;100565.75;5032348;28;20121;-86
2023/06/26 11:08:56;;;;;;;6.28;4.28;;;;;;;24.83;50.90;100560.91;5032614;28;20578;-86
2023/06/26 11:12:04;;;;;;;6.50;3.63;;;;;;;24.90;50.09;100559.19;5032334;28;20052;-74
2023/06/26 11:15:19;;;;;;;11.30;4.60;;;;;;;24.70;50.53;100564.09;5032362;28;20266;-73
2023/06/26 11:18:23;;;;;;;10.90;3.58;;;;;;;24.51;50.35;100575.19;5032255;28;20047;-84
2023/06/26 11:21:27;;;;;;;10.73;4.45;;;;;;;24.55;50.38;100577.31;5032184;28;20103;-81
2023/06/26 11:24:31;;;;;;;7.15;3.47;;;;;;;24.53;50.70;100576.66;5019819;28;20043;-81
2023/06/26 11:27:43;;;;;;;8.90;4.60;;;;;;;24.71;50.78;100573.78;5019226;28;20406;-81
2023/06/26 11:30:47;;;;;;;7.72;3.45;;;;;;;24.87;50.98;100585.44;5019599;28;20122;-81
2023/06/26 11:33:50;;;;;;;10.10;3.63;;;;;;;24.65;50.95;100579.81;5031779;28;20458;-82
2023/06/26 11:36:56;;;;;;;7.78;3.42;;;;;;;24.67;49.67;100596.53;5032169;28;20048;-81
2023/06/26 11:40:00;;;;;;;7.43;3.53;;;;;;;24.80;49.03;100590.66;5029182;28;20506;-77
2023/06/26 11:43:03;;;;;;;6.90;3.20;;;;;;;24.91;49.12;100581.41;5032087;28;20466;-79
2023/06/26 11:46:07;;;;;;;5.88;3.15;;;;;;;25.00;48.10;100593.75;5035986;28;20063;-80
2023/06/26 11:49:10;;;;;;;6.43;3.20;;;;;;;25.20;48.11;100597.72;5036208;28;20052;-79
2023/06/26 11:52:15;;;;;;;9.05;3.30;;;;;;;25.56;49.62;100591.88;5037044;28;20061;-79
2023/06/26 11:55:18;;;;;;;9.63;3.10;;;;;;;25.34;46.93;100596.16;5035799;28;20052;-81
2023/06/26 11:58:22;;;;;;;6.75;3.00;;;;;;;25.30;47.63;100592.16;5035635;28;20081;-80
2023/06/26 12:01:39;;;;;;;5.85;3.00;;;;;;;25.42;47.64;100600.63;5035694;28;20048;-78
2023/06/26 12:04:44;;;;;;;6.35;2.90;;;;;;;24.86;47.13;100598.00;5035587;28;20100;-78
2023/06/26 12:07:51;;;;;;;8.70;2.88;;;;;;;24.90;46.78;100601.16;5022160;28;20403;-78
2023/06/26 12:10:56;;;;;;;14.07;3.65;;;;;;;25.02;45.60;100599.78;5034957;28;20047;-79
2023/06/26 12:14:02;;;;;;;6.85;2.95;;;;;;;25.20;45.49;100597.72;5034614;28;20048;-80
2023/06/26 12:17:13;;;;;;;9.77;2.70;;;;;;;25.18;44.71;100594.41;5023493;28;20118;-80
2023/06/26 12:20:25;;;;;;;5.63;2.78;;;;;;;25.37;45.29;100587.78;5023335;28;20522;-78
2023/06/26 12:23:55;;;;;;;7.70;2.72;;;;;;;25.70;45.17;100596.47;5023144;28;20510;-78
2023/06/26 12:26:58;;;;;;;5.68;2.42;;;;;;;25.12;44.34;100600.44;5035113;28;20084;-78
2023/06/26 12:30:07;;;;;;;10.27;2.90;;;;;;;25.45;43.61;100600.28;5034854;28;20134;-80
2023/06/26 12:33:16;;;;;;;8.07;2.88;;;;;;;25.82;43.15;100593.41;5023409;28;20434;-79
2023/06/26 12:36:23;;;;;;;7.57;3.00;;;;;;;25.89;41.37;100599.72;5035786;28;20165;-80
2023/06/26 12:40:10;;;;;;;7.63;2.80;;;;;;;25.23;42.72;100613.44;5035150;28;20052;-83
2023/06/26 12:43:23;;;;;;;;;;;;;;;25.19;43.32;100617.47;5035427;28;20055;-81
2023/06/26 12:46:36;;;;;;;5.35;1.85;;;;;;;25.74;43.02;100608.47;5034614;28;19923;-80
2023/06/26 12:49:42;;;;;;;4.68;1.90;;;;;;;25.63;40.79;100613.44;5034218;28;20095;-81
2023/06/26 12:52:45;;;;;;;5.82;2.22;;;;;;;25.74;41.11;100611.16;5034383;28;20095;-81
2023/06/26 12:55:48;;;;;;;6.80;2.42;;;;;;;26.06;40.37;100603.09;5034408;28;20576;-77
2023/06/26 12:58:51;;;;;;;7.90;2.25;;;;;;;26.01;40.18;100614.38;5034714;28;20047;-78
2023/06/26 13:01:55;;;;;;;4.10;1.80;;;;;;;26.09;39.71;100625.03;5034579;28;20064;-77
2023/06/26 13:04:58;;;;;;;4.15;1.92;;;;;;;26.04;39.62;100611.34;5033654;28;20480;-77
2023/06/26 13:08:03;;;;;;;6.63;2.00;;;;;;;26.18;40.06;100590.97;5034392;28;20581;-77
2023/06/26 13:11:06;;;;;;;7.05;2.00;;;;;;;26.23;38.27;100585.03;5022051;28;20052;-76
2023/06/26 13:14:10;;;;;;;6.10;2.13;;;;;;;26.60;38.84;100578.88;5034238;28;20130;-77
2023/06/26 13:17:14;;;;;;;4.10;2.13;;;;;;;27.10;37.77;100590.72;5034233;28;20044;-77
2023/06/26 13:20:17;;;;;;;4.28;2.08;;;;;;;27.03;37.27;100592.50;5034288;28;20106;-78
2023/06/26 13:23:20;;;;;;;7.38;2.00;;;;;;;26.91;36.72;100602.84;5034463;28;20553;-77
2023/06/26 13:26:25;;;;;;;7.15;1.77;;;;;;;26.68;37.41;100608.31;5035673;28;20045;-78
2023/06/26 13:29:32;;;;;;;6.68;1.83;;;;;;;26.79;37.20;100609.69;5020530;28;20458;-82
2023/06/26 13:32:36;;;;;;;4.97;1.83;;;;;;;26.83;36.37;100621.69;5034189;28;20049;-79
2023/06/26 13:35:39;;;;;;;6.30;2.10;;;;;;;26.67;36.45;100630.75;5034073;28;20593;-78
2023/06/26 13:38:42;;;;;;;7.85;2.38;;;;;;;26.56;36.38;100632.03;5021640;28;20115;-78
2023/06/26 13:41:46;;;;;;;9.30;2.35;;;;;;;26.16;36.76;100652.78;5033960;28;20052;-78
2023/06/26 13:44:49;;;;;;;6.72;1.92;;;;;;;26.33;36.58;100655.34;5033889;28;20068;-76
2023/06/26 13:47:55;;;;;;;6.63;1.77;;;;;;;26.62;37.81;100644.72;5033806;28;20044;-85
2023/06/26 13:51:01;;;;;;;6.60;2.10;;;;;;;27.18;36.20;100630.06;5033561;28;20149;-81
2023/06/26 13:54:05;;;;;;;11.45;1.90;;;;;;;27.52;35.11;100633.00;5021284;28;20060;-80
2023/06/26 13:57:10;;;;;;;8.98;2.58;;;;;;;26.95;34.76;100620.22;5033888;28;20514;-80
2023/06/26 14:00:19;;;;;;;12.32;2.00;;;;;;;27.14;34.21;100624.25;5033358;28;20562;-80
2023/06/26 14:03:28;;;;;;;4.32;1.55;;;;;;;26.67;34.41;100631.59;5033717;28;20111;-82
2023/06/26 14:06:34;;;;;;;4.50;1.50;;;;;;;26.26;35.18;100632.94;5032330;28;20584;-81
2023/06/26 14:09:38;;;;;;;4.97;1.50;;;;;;;25.97;35.47;100653.22;5033462;28;20056;-79
2023/06/26 14:12:41;;;;;;;5.68;2.00;;;;;;;26.24;35.39;100643.03;5033097;28;20049;-80
2023/06/26 14:15:46;;;;;;;8.23;1.63;;;;;;;26.72;34.67;100640.94;5033277;28;20067;-79
2023/06/26 14:18:49;;;;;;;6.70;1.85;;;;;;;26.29;35.20;100651.34;5033106;28;20103;-81
2023/06/26 14:21:53;;;;;;;4.68;1.63;;;;;;;26.30;34.15;100644.97;5032957;28;20048;-79
2023/06/26 14:24:56;;;;;;;7.53;1.70;;;;;;;26.99;34.02;100659.09;5032704;28;20467;-79
2023/06/26 14:28:00;;;;;;;4.80;1.42;;;;;;;27.92;32.39;100662.19;5033158;28;20056;-78